sensor_id;sensor_type;location;lat;lon;timestamp;temperature;humidity
70475;DHT22;57944;48.722;9.316;2023-04-08T00:02:13;7.80;99.90
70475;DHT22;57944;48.722;9.316;2023-04-08T00:04:46;7.90;99.90
70475;DHT22;57944;48.722;9.316;2023-04-08T00:07:16;7.90;99.90
70475;DHT22;57944;48.722;9.316;2023-04-08T00:09:47;7.90;99.90
70475;DHT22;57944;48.722;9.316;2023-04-08T00:12:18;8.00;99.90
70475;DHT22;57944;48.722;9.316;2023-04-08T00:14:48;8.00;99.90
70475;DHT22;57944;48.722;9.316;2023-04-08T00:17:19;8.10;99.90
70475;DHT22;57944;48.722;9.316;2023-04-08T00:19:51;8.10;99.90
70475;DHT22;57944;48.722;9.316;2023-04-08T00:22:22;8.20;99.90
70475;DHT22;57944;48.722;9.316;2023-04-08T00:24:52;8.10;99.90
70475;DHT22;57944;48.722;9.316;2023-04-08T00:27:22;7.90;99.90
70475;DHT22;57944;48.722;9.316;2023-04-08T00:29:53;7.80;99.90
70475;DHT22;57944;48.722;9.316;2023-04-08T00:32:23;7.70;99.90
70475;DHT22;57944;48.722;9.316;2023-04-08T00:34:56;7.60;99.90
70475;DHT22;57944;48.722;9.316;2023-04-08T00:37:26;7.50;99.90
70475;DHT22;57944;48.722;9.316;2023-04-08T00:39:57;7.50;99.90
70475;DHT22;57944;48.722;9.316;2023-04-08T00:42:27;7.30;99.90
70475;DHT22;57944;48.722;9.316;2023-04-08T00:44:57;7.30;99.90
70475;DHT22;57944;48.722;9.316;2023-04-08T00:47:28;7.30;99.90
70475;DHT22;57944;48.722;9.316;2023-04-08T00:50:01;7.30;99.90
70475;DHT22;57944;48.722;9.316;2023-04-08T00:52:32;7.40;99.90
70475;DHT22;57944;48.722;9.316;2023-04-08T00:55:03;7.30;99.90
70475;DHT22;57944;48.722;9.316;2023-04-08T00:57:34;7.30;99.90
70475;DHT22;57944;48.722;9.316;2023-04-08T01:00:05;7.40;99.90
70475;DHT22;57944;48.722;9.316;2023-04-08T01:02:38;7.40;99.90
70475;DHT22;57944;48.722;9.316;2023-04-08T01:05:18;7.50;99.90
70475;DHT22;57944;48.722;9.316;2023-04-08T01:07:54;7.50;99.90
70475;DHT22;57944;48.722;9.316;2023-04-08T01:10:28;7.60;99.90
70475;DHT22;57944;48.722;9.316;2023-04-08T01:13:03;7.50;99.90
70475;DHT22;57944;48.722;9.316;2023-04-08T01:15:38;7.50;99.90
70475;DHT22;57944;48.722;9.316;2023-04-08T01:18:09;7.50;99.90
70475;DHT22;57944;48.722;9.316;2023-04-08T01:20:45;7.40;99.90
70475;DHT22;57944;48.722;9.316;2023-04-08T01:23:17;7.50;99.90
70475;DHT22;57944;48.722;9.316;2023-04-08T01:25:54;7.40;99.90
70475;DHT22;57944;48.722;9.316;2023-04-08T01:28:27;7.40;99.90
70475;DHT22;57944;48.722;9.316;2023-04-08T01:30:59;7.30;99.90
70475;DHT22;57944;48.722;9.316;2023-04-08T01:33:30;7.40;99.90
70475;DHT22;57944;48.722;9.316;2023-04-08T01:36:02;7.30;99.90
70475;DHT22;57944;48.722;9.316;2023-04-08T01:38:36;7.40;99.90
70475;DHT22;57944;48.722;9.316;2023-04-08T01:41:10;7.40;99.90
70475;DHT22;57944;48.722;9.316;2023-04-08T01:43:40;7.50;99.90
70475;DHT22;57944;48.722;9.316;2023-04-08T01:46:12;7.40;99.90
70475;DHT22;57944;48.722;9.316;2023-04-08T01:48:44;7.40;99.90
70475;DHT22;57944;48.722;9.316;2023-04-08T01:51:15;7.50;99.90
70475;DHT22;57944;48.722;9.316;2023-04-08T01:53:46;7.40;99.90
70475;DHT22;57944;48.722;9.316;2023-04-08T01:56:19;7.40;99.90
70475;DHT22;57944;48.722;9.316;2023-04-08T01:58:51;7.40;99.90
70475;DHT22;57944;48.722;9.316;2023-04-08T02:01:26;7.50;99.90
70475;DHT22;57944;48.722;9.316;2023-04-08T02:03:58;7.40;99.90
70475;DHT22;57944;48.722;9.316;2023-04-08T02:06:30;7.40;99.90
70475;DHT22;57944;48.722;9.316;2023-04-08T02:09:00;7.40;99.90
70475;DHT22;57944;48.722;9.316;2023-04-08T02:11:34;7.60;99.90
70475;DHT22;57944;48.722;9.316;2023-04-08T02:14:04;7.70;99.90
70475;DHT22;57944;48.722;9.316;2023-04-08T02:16:36;7.60;99.90
70475;DHT22;57944;48.722;9.316;2023-04-08T02:19:13;7.60;99.90
70475;DHT22;57944;48.722;9.316;2023-04-08T02:21:47;7.60;99.90
70475;DHT22;57944;48.722;9.316;2023-04-08T02:24:21;7.50;99.90
70475;DHT22;57944;48.722;9.316;2023-04-08T02:26:53;7.40;99.90
70475;DHT22;57944;48.722;9.316;2023-04-08T02:29:25;7.30;99.90
70475;DHT22;57944;48.722;9.316;2023-04-08T02:31:58;7.30;99.90
70475;DHT22;57944;48.722;9.316;2023-04-08T02:34:31;7.30;99.90
70475;DHT22;57944;48.722;9.316;2023-04-08T02:37:03;7.30;99.90
70475;DHT22;57944;48.722;9.316;2023-04-08T02:39:33;7.30;99.90
70475;DHT22;57944;48.722;9.316;2023-04-08T02:42:06;7.30;99.90
70475;DHT22;57944;48.722;9.316;2023-04-08T02:44:38;7.30;99.90
70475;DHT22;57944;48.722;9.316;2023-04-08T02:47:08;7.40;99.90
70475;DHT22;57944;48.722;9.316;2023-04-08T02:49:38;7.40;99.90
70475;DHT22;57944;48.722;9.316;2023-04-08T02:52:09;7.30;99.90
70475;DHT22;57944;48.722;9.316;2023-04-08T02:54:39;7.30;99.90
70475;DHT22;57944;48.722;9.316;2023-04-08T02:57:12;7.20;99.90
70475;DHT22;57944;48.722;9.316;2023-04-08T02:59:43;7.20;99.90
70475;DHT22;57944;48.722;9.316;2023-04-08T03:02:13;7.10;99.90
70475;DHT22;57944;48.722;9.316;2023-04-08T03:04:43;7.10;99.90
70475;DHT22;57944;48.722;9.316;2023-04-08T03:07:13;7.00;99.90
70475;DHT22;57944;48.722;9.316;2023-04-08T03:09:43;7.00;99.90
70475;DHT22;57944;48.722;9.316;2023-04-08T03:12:16;7.10;99.90
70475;DHT22;57944;48.722;9.316;2023-04-08T03:14:46;7.10;99.90
70475;DHT22;57944;48.722;9.316;2023-04-08T03:17:17;7.10;99.90
70475;DHT22;57944;48.722;9.316;2023-04-08T03:19:50;7.00;99.90
70475;DHT22;57944;48.722;9.316;2023-04-08T03:22:20;7.00;99.90
70475;DHT22;57944;48.722;9.316;2023-04-08T03:24:50;7.00;99.90
70475;DHT22;57944;48.722;9.316;2023-04-08T03:27:23;7.00;99.90
70475;DHT22;57944;48.722;9.316;2023-04-08T03:29:54;6.90;99.90
70475;DHT22;57944;48.722;9.316;2023-04-08T03:32:25;6.90;99.90
70475;DHT22;57944;48.722;9.316;2023-04-08T03:34:55;7.00;99.90
70475;DHT22;57944;48.722;9.316;2023-04-08T03:37:25;7.00;99.90
70475;DHT22;57944;48.722;9.316;2023-04-08T03:39:55;7.20;99.90
70475;DHT22;57944;48.722;9.316;2023-04-08T03:42:28;7.20;99.90
70475;DHT22;57944;48.722;9.316;2023-04-08T03:44:59;7.30;99.90
70475;DHT22;57944;48.722;9.316;2023-04-08T03:47:30;7.30;99.90
70475;DHT22;57944;48.722;9.316;2023-04-08T03:50:00;7.20;99.90
70475;DHT22;57944;48.722;9.316;2023-04-08T03:52:30;7.10;99.90
70475;DHT22;57944;48.722;9.316;2023-04-08T03:55:00;7.00;99.90
70475;DHT22;57944;48.722;9.316;2023-04-08T03:57:34;7.00;99.90
70475;DHT22;57944;48.722;9.316;2023-04-08T04:00:04;7.00;99.90
70475;DHT22;57944;48.722;9.316;2023-04-08T04:02:38;7.00;99.90
70475;DHT22;57944;48.722;9.316;2023-04-08T04:05:09;6.90;99.90
70475;DHT22;57944;48.722;9.316;2023-04-08T04:07:39;7.00;99.90
70475;DHT22;57944;48.722;9.316;2023-04-08T04:10:09;7.00;99.90
70475;DHT22;57944;48.722;9.316;2023-04-08T04:12:42;7.00;99.90
70475;DHT22;57944;48.722;9.316;2023-04-08T04:15:13;6.80;99.90
70475;DHT22;57944;48.722;9.316;2023-04-08T04:17:43;6.80;99.90
70475;DHT22;57944;48.722;9.316;2023-04-08T04:20:16;6.70;99.90
70475;DHT22;57944;48.722;9.316;2023-04-08T04:22:47;6.70;99.90
70475;DHT22;57944;48.722;9.316;2023-04-08T04:25:17;6.70;99.90
70475;DHT22;57944;48.722;9.316;2023-04-08T04:27:50;6.70;99.90
70475;DHT22;57944;48.722;9.316;2023-04-08T04:30:20;6.60;99.90
70475;DHT22;57944;48.722;9.316;2023-04-08T04:32:51;6.60;99.90
70475;DHT22;57944;48.722;9.316;2023-04-08T04:35:22;6.60;99.90
70475;DHT22;57944;48.722;9.316;2023-04-08T04:37:52;6.70;99.90
70475;DHT22;57944;48.722;9.316;2023-04-08T04:40:22;6.70;99.90
70475;DHT22;57944;48.722;9.316;2023-04-08T04:42:55;6.80;99.90
70475;DHT22;57944;48.722;9.316;2023-04-08T04:45:26;6.70;99.90
70475;DHT22;57944;48.722;9.316;2023-04-08T04:47:56;6.60;99.90
70475;DHT22;57944;48.722;9.316;2023-04-08T04:50:26;6.60;99.90
70475;DHT22;57944;48.722;9.316;2023-04-08T04:52:56;6.60;99.90
70475;DHT22;57944;48.722;9.316;2023-04-08T04:55:26;6.60;99.90
70475;DHT22;57944;48.722;9.316;2023-04-08T04:57:59;6.60;99.90
70475;DHT22;57944;48.722;9.316;2023-04-08T05:00:30;6.50;99.90
70475;DHT22;57944;48.722;9.316;2023-04-08T05:03:00;6.50;99.90
70475;DHT22;57944;48.722;9.316;2023-04-08T05:05:31;6.60;99.90
70475;DHT22;57944;48.722;9.316;2023-04-08T05:08:01;6.60;99.90
70475;DHT22;57944;48.722;9.316;2023-04-08T05:10:31;6.70;99.90
70475;DHT22;57944;48.722;9.316;2023-04-08T05:13:04;6.70;99.90
70475;DHT22;57944;48.722;9.316;2023-04-08T05:15:34;6.70;99.90
70475;DHT22;57944;48.722;9.316;2023-04-08T05:18:04;6.70;99.90
70475;DHT22;57944;48.722;9.316;2023-04-08T05:20:35;6.80;99.90
70475;DHT22;57944;48.722;9.316;2023-04-08T05:23:05;6.80;99.90
70475;DHT22;57944;48.722;9.316;2023-04-08T05:25:35;6.90;99.90
70475;DHT22;57944;48.722;9.316;2023-04-08T05:28:08;7.00;99.90
70475;DHT22;57944;48.722;9.316;2023-04-08T05:30:38;7.00;99.90
70475;DHT22;57944;48.722;9.316;2023-04-08T05:33:08;7.10;99.90
70475;DHT22;57944;48.722;9.316;2023-04-08T05:35:39;7.30;99.90
70475;DHT22;57944;48.722;9.316;2023-04-08T05:38:09;7.40;99.90
70475;DHT22;57944;48.722;9.316;2023-04-08T05:40:39;7.40;99.90
70475;DHT22;57944;48.722;9.316;2023-04-08T05:43:12;7.50;99.90
70475;DHT22;57944;48.722;9.316;2023-04-08T05:45:42;7.60;99.90
70475;DHT22;57944;48.722;9.316;2023-04-08T05:48:12;7.50;99.90
70475;DHT22;57944;48.722;9.316;2023-04-08T05:50:42;7.50;99.90
70475;DHT22;57944;48.722;9.316;2023-04-08T05:53:14;7.50;99.90
70475;DHT22;57944;48.722;9.316;2023-04-08T05:55:44;7.60;99.90
70475;DHT22;57944;48.722;9.316;2023-04-08T05:58:17;7.60;99.90
70475;DHT22;57944;48.722;9.316;2023-04-08T06:00:47;7.50;99.90
70475;DHT22;57944;48.722;9.316;2023-04-08T06:03:17;7.40;99.90
70475;DHT22;57944;48.722;9.316;2023-04-08T06:05:48;7.50;99.90
70475;DHT22;57944;48.722;9.316;2023-04-08T06:08:18;7.40;99.90
70475;DHT22;57944;48.722;9.316;2023-04-08T06:10:49;7.40;99.90
70475;DHT22;57944;48.722;9.316;2023-04-08T06:13:22;7.40;99.90
70475;DHT22;57944;48.722;9.316;2023-04-08T06:15:52;7.40;99.90
70475;DHT22;57944;48.722;9.316;2023-04-08T06:18:23;7.40;99.90
70475;DHT22;57944;48.722;9.316;2023-04-08T06:20:53;7.50;99.90
70475;DHT22;57944;48.722;9.316;2023-04-08T06:23:25;7.40;99.90
70475;DHT22;57944;48.722;9.316;2023-04-08T06:25:55;7.50;99.90
70475;DHT22;57944;48.722;9.316;2023-04-08T06:28:28;7.60;99.90
70475;DHT22;57944;48.722;9.316;2023-04-08T06:30:59;7.50;99.90
70475;DHT22;57944;48.722;9.316;2023-04-08T06:33:29;7.50;99.90
70475;DHT22;57944;48.722;9.316;2023-04-08T06:36:02;7.60;99.90
70475;DHT22;57944;48.722;9.316;2023-04-08T06:38:34;7.80;99.90
70475;DHT22;57944;48.722;9.316;2023-04-08T06:41:05;8.00;99.90
70475;DHT22;57944;48.722;9.316;2023-04-08T06:43:38;8.10;99.90
70475;DHT22;57944;48.722;9.316;2023-04-08T06:46:08;8.30;99.90
70475;DHT22;57944;48.722;9.316;2023-04-08T06:48:38;8.50;99.90
70475;DHT22;57944;48.722;9.316;2023-04-08T06:51:09;8.60;99.90
70475;DHT22;57944;48.722;9.316;2023-04-08T06:53:39;8.80;99.90
70475;DHT22;57944;48.722;9.316;2023-04-08T06:56:09;8.80;99.90
70475;DHT22;57944;48.722;9.316;2023-04-08T06:58:42;8.70;99.90
70475;DHT22;57944;48.722;9.316;2023-04-08T07:01:14;8.60;99.90
70475;DHT22;57944;48.722;9.316;2023-04-08T07:03:45;8.50;99.90
70475;DHT22;57944;48.722;9.316;2023-04-08T07:06:15;8.50;99.90
70475;DHT22;57944;48.722;9.316;2023-04-08T07:08:46;8.40;99.90
70475;DHT22;57944;48.722;9.316;2023-04-08T07:11:16;8.40;99.90
70475;DHT22;57944;48.722;9.316;2023-04-08T07:13:49;8.50;99.90
70475;DHT22;57944;48.722;9.316;2023-04-08T07:16:20;8.70;99.90
70475;DHT22;57944;48.722;9.316;2023-04-08T07:18:50;9.00;99.90
70475;DHT22;57944;48.722;9.316;2023-04-08T07:21:20;9.10;99.90
70475;DHT22;57944;48.722;9.316;2023-04-08T07:23:50;9.00;99.90
70475;DHT22;57944;48.722;9.316;2023-04-08T07:26:20;8.90;99.90
70475;DHT22;57944;48.722;9.316;2023-04-08T07:28:53;8.80;99.90
70475;DHT22;57944;48.722;9.316;2023-04-08T07:31:24;8.60;99.90
70475;DHT22;57944;48.722;9.316;2023-04-08T07:33:54;8.60;99.90
70475;DHT22;57944;48.722;9.316;2023-04-08T07:36:25;8.90;99.90
70475;DHT22;57944;48.722;9.316;2023-04-08T07:38:55;9.30;99.90
70475;DHT22;57944;48.722;9.316;2023-04-08T07:41:25;10.10;99.90
70475;DHT22;57944;48.722;9.316;2023-04-08T07:43:57;10.70;99.90
70475;DHT22;57944;48.722;9.316;2023-04-08T07:46:28;11.00;99.90
70475;DHT22;57944;48.722;9.316;2023-04-08T07:49:00;11.30;99.90
70475;DHT22;57944;48.722;9.316;2023-04-08T07:51:30;11.40;99.90
70475;DHT22;57944;48.722;9.316;2023-04-08T07:54:00;11.60;99.90
70475;DHT22;57944;48.722;9.316;2023-04-08T07:56:30;11.90;99.90
70475;DHT22;57944;48.722;9.316;2023-04-08T07:59:03;12.00;99.90
70475;DHT22;57944;48.722;9.316;2023-04-08T08:01:33;11.90;99.90
70475;DHT22;57944;48.722;9.316;2023-04-08T08:04:04;11.60;99.90
70475;DHT22;57944;48.722;9.316;2023-04-08T08:06:34;11.70;99.90
70475;DHT22;57944;48.722;9.316;2023-04-08T08:09:05;11.60;99.90
70475;DHT22;57944;48.722;9.316;2023-04-08T08:11:35;11.70;99.90
70475;DHT22;57944;48.722;9.316;2023-04-08T08:14:08;11.80;99.90
70475;DHT22;57944;48.722;9.316;2023-04-08T08:16:39;12.10;99.90
70475;DHT22;57944;48.722;9.316;2023-04-08T08:19:10;12.30;99.90
70475;DHT22;57944;48.722;9.316;2023-04-08T08:21:40;12.30;99.90
70475;DHT22;57944;48.722;9.316;2023-04-08T08:24:10;12.20;99.90
70475;DHT22;57944;48.722;9.316;2023-04-08T08:26:41;12.00;99.90
70475;DHT22;57944;48.722;9.316;2023-04-08T08:29:15;11.80;99.90
70475;DHT22;57944;48.722;9.316;2023-04-08T08:31:46;11.60;99.90
70475;DHT22;57944;48.722;9.316;2023-04-08T08:34:16;11.20;99.90
70475;DHT22;57944;48.722;9.316;2023-04-08T08:36:48;11.20;99.90
70475;DHT22;57944;48.722;9.316;2023-04-08T08:39:18;11.20;99.90
70475;DHT22;57944;48.722;9.316;2023-04-08T08:41:48;11.40;99.90
70475;DHT22;57944;48.722;9.316;2023-04-08T08:44:22;12.00;99.90
70475;DHT22;57944;48.722;9.316;2023-04-08T08:46:53;12.70;99.90
70475;DHT22;57944;48.722;9.316;2023-04-08T08:49:23;13.00;99.90
70475;DHT22;57944;48.722;9.316;2023-04-08T08:51:53;13.10;99.90
70475;DHT22;57944;48.722;9.316;2023-04-08T08:54:24;13.30;99.90
70475;DHT22;57944;48.722;9.316;2023-04-08T08:56:54;14.00;99.90
70475;DHT22;57944;48.722;9.316;2023-04-08T08:59:27;14.30;99.90
70475;DHT22;57944;48.722;9.316;2023-04-08T09:01:57;14.60;99.90
70475;DHT22;57944;48.722;9.316;2023-04-08T09:04:28;15.10;99.90
70475;DHT22;57944;48.722;9.316;2023-04-08T09:07:07;14.50;99.90
70475;DHT22;57944;48.722;9.316;2023-04-08T09:09:46;14.20;99.90
70475;DHT22;57944;48.722;9.316;2023-04-08T09:12:17;14.20;99.90
70475;DHT22;57944;48.722;9.316;2023-04-08T09:14:50;14.30;99.90
70475;DHT22;57944;48.722;9.316;2023-04-08T09:17:33;14.80;99.90
70475;DHT22;57944;48.722;9.316;2023-04-08T09:20:05;14.80;99.90
70475;DHT22;57944;48.722;9.316;2023-04-08T09:25:28;15.90;99.90
70475;DHT22;57944;48.722;9.316;2023-04-08T09:27:59;17.20;99.90
70475;DHT22;57944;48.722;9.316;2023-04-08T09:30:32;17.40;99.90
70475;DHT22;57944;48.722;9.316;2023-04-08T09:33:02;17.90;99.30
70475;DHT22;57944;48.722;9.316;2023-04-08T09:35:33;18.00;98.10
70475;DHT22;57944;48.722;9.316;2023-04-08T09:38:03;18.20;98.30
70475;DHT22;57944;48.722;9.316;2023-04-08T09:40:34;18.20;97.90
70475;DHT22;57944;48.722;9.316;2023-04-08T09:43:06;18.10;97.20
70475;DHT22;57944;48.722;9.316;2023-04-08T09:45:42;18.10;96.20
70475;DHT22;57944;48.722;9.316;2023-04-08T09:48:16;17.60;96.00
70475;DHT22;57944;48.722;9.316;2023-04-08T09:50:50;17.60;95.90
70475;DHT22;57944;48.722;9.316;2023-04-08T09:53:23;17.90;95.60
70475;DHT22;57944;48.722;9.316;2023-04-08T09:55:58;17.80;95.10
70475;DHT22;57944;48.722;9.316;2023-04-08T09:58:33;18.30;95.20
70475;DHT22;57944;48.722;9.316;2023-04-08T10:01:11;18.20;94.80
70475;DHT22;57944;48.722;9.316;2023-04-08T10:03:44;18.10;95.30
70475;DHT22;57944;48.722;9.316;2023-04-08T10:06:17;17.80;93.60
70475;DHT22;57944;48.722;9.316;2023-04-08T10:08:50;17.00;93.60
70475;DHT22;57944;48.722;9.316;2023-04-08T10:11:20;17.00;93.20
70475;DHT22;57944;48.722;9.316;2023-04-08T10:13:51;18.10;92.50
70475;DHT22;57944;48.722;9.316;2023-04-08T10:16:24;18.90;91.40
70475;DHT22;57944;48.722;9.316;2023-04-08T10:18:55;17.90;91.50
70475;DHT22;57944;48.722;9.316;2023-04-08T10:21:34;17.60;92.40
70475;DHT22;57944;48.722;9.316;2023-04-08T10:24:08;17.30;91.50
70475;DHT22;57944;48.722;9.316;2023-04-08T10:26:39;16.90;92.10
70475;DHT22;57944;48.722;9.316;2023-04-08T10:32:01;16.00;92.90
70475;DHT22;57944;48.722;9.316;2023-04-08T10:34:32;15.50;93.10
70475;DHT22;57944;48.722;9.316;2023-04-08T10:37:02;15.30;93.30
70475;DHT22;57944;48.722;9.316;2023-04-08T10:39:34;14.80;93.00
70475;DHT22;57944;48.722;9.316;2023-04-08T10:42:05;14.00;93.50
70475;DHT22;57944;48.722;9.316;2023-04-08T10:44:43;13.70;94.00
70475;DHT22;57944;48.722;9.316;2023-04-08T10:47:17;13.40;94.00
70475;DHT22;57944;48.722;9.316;2023-04-08T10:49:54;13.40;94.30
70475;DHT22;57944;48.722;9.316;2023-04-08T10:52:25;12.90;94.60
70475;DHT22;57944;48.722;9.316;2023-04-08T10:54:55;12.40;95.00
70475;DHT22;57944;48.722;9.316;2023-04-08T10:57:26;12.20;96.10
70475;DHT22;57944;48.722;9.316;2023-04-08T10:59:56;12.20;95.70
70475;DHT22;57944;48.722;9.316;2023-04-08T11:02:33;12.00;95.80
70475;DHT22;57944;48.722;9.316;2023-04-08T11:05:08;11.90;96.50
70475;DHT22;57944;48.722;9.316;2023-04-08T11:07:39;12.00;96.40
70475;DHT22;57944;48.722;9.316;2023-04-08T11:10:10;12.30;96.60
70475;DHT22;57944;48.722;9.316;2023-04-08T11:12:40;12.70;96.50
70475;DHT22;57944;48.722;9.316;2023-04-08T11:15:12;12.90;96.10
70475;DHT22;57944;48.722;9.316;2023-04-08T11:17:46;13.00;96.30
70475;DHT22;57944;48.722;9.316;2023-04-08T11:20:16;13.10;96.00
70475;DHT22;57944;48.722;9.316;2023-04-08T11:22:46;13.10;96.00
70475;DHT22;57944;48.722;9.316;2023-04-08T11:25:17;13.20;96.70
70475;DHT22;57944;48.722;9.316;2023-04-08T11:27:47;13.50;96.50
70475;DHT22;57944;48.722;9.316;2023-04-08T11:30:18;13.70;95.80
70475;DHT22;57944;48.722;9.316;2023-04-08T11:32:51;13.80;95.00
70475;DHT22;57944;48.722;9.316;2023-04-08T11:35:22;14.20;94.80
70475;DHT22;57944;48.722;9.316;2023-04-08T11:37:52;14.40;94.90
70475;DHT22;57944;48.722;9.316;2023-04-08T11:40:22;14.30;95.00
70475;DHT22;57944;48.722;9.316;2023-04-08T11:42:53;14.00;95.40
70475;DHT22;57944;48.722;9.316;2023-04-08T11:45:23;13.70;95.50
70475;DHT22;57944;48.722;9.316;2023-04-08T11:47:57;13.70;95.60
70475;DHT22;57944;48.722;9.316;2023-04-08T11:50:30;13.80;95.50
70475;DHT22;57944;48.722;9.316;2023-04-08T11:53:00;13.80;93.60
70475;DHT22;57944;48.722;9.316;2023-04-08T11:55:31;13.90;93.80
70475;DHT22;57944;48.722;9.316;2023-04-08T11:58:02;13.80;93.70
70475;DHT22;57944;48.722;9.316;2023-04-08T12:00:33;13.80;93.70
70475;DHT22;57944;48.722;9.316;2023-04-08T12:03:07;13.70;93.20
70475;DHT22;57944;48.722;9.316;2023-04-08T12:05:39;13.60;93.50
70475;DHT22;57944;48.722;9.316;2023-04-08T12:08:09;13.40;93.80
70475;DHT22;57944;48.722;9.316;2023-04-08T12:10:39;13.30;94.50
70475;DHT22;57944;48.722;9.316;2023-04-08T12:13:09;13.20;95.00
70475;DHT22;57944;48.722;9.316;2023-04-08T12:15:40;13.20;94.40
70475;DHT22;57944;48.722;9.316;2023-04-08T12:18:12;13.20;94.40
70475;DHT22;57944;48.722;9.316;2023-04-08T12:20:43;13.20;94.40
70475;DHT22;57944;48.722;9.316;2023-04-08T12:23:13;13.00;94.50
70475;DHT22;57944;48.722;9.316;2023-04-08T12:25:43;13.20;94.90
70475;DHT22;57944;48.722;9.316;2023-04-08T12:28:14;13.50;93.90
70475;DHT22;57944;48.722;9.316;2023-04-08T12:30:44;13.30;94.20
70475;DHT22;57944;48.722;9.316;2023-04-08T12:33:17;13.40;94.40
70475;DHT22;57944;48.722;9.316;2023-04-08T12:35:47;13.40;94.40
70475;DHT22;57944;48.722;9.316;2023-04-08T12:38:18;13.80;94.20
70475;DHT22;57944;48.722;9.316;2023-04-08T12:40:48;14.00;93.70
70475;DHT22;57944;48.722;9.316;2023-04-08T12:43:18;13.80;93.20
70475;DHT22;57944;48.722;9.316;2023-04-08T12:45:49;13.80;93.50
70475;DHT22;57944;48.722;9.316;2023-04-08T12:48:22;14.00;93.40
70475;DHT22;57944;48.722;9.316;2023-04-08T12:50:53;14.10;94.20
70475;DHT22;57944;48.722;9.316;2023-04-08T12:53:24;14.20;93.30
70475;DHT22;57944;48.722;9.316;2023-04-08T12:55:55;14.00;93.30
70475;DHT22;57944;48.722;9.316;2023-04-08T12:58:27;14.30;93.50
70475;DHT22;57944;48.722;9.316;2023-04-08T13:00:57;14.10;93.00
70475;DHT22;57944;48.722;9.316;2023-04-08T13:03:30;13.90;93.30
70475;DHT22;57944;48.722;9.316;2023-04-08T13:06:02;14.00;93.20
70475;DHT22;57944;48.722;9.316;2023-04-08T13:08:32;14.00;93.60
70475;DHT22;57944;48.722;9.316;2023-04-08T13:11:03;14.00;93.70
70475;DHT22;57944;48.722;9.316;2023-04-08T13:13:34;13.90;93.80
70475;DHT22;57944;48.722;9.316;2023-04-08T13:16:04;14.20;93.80
70475;DHT22;57944;48.722;9.316;2023-04-08T13:18:37;14.10;93.60
70475;DHT22;57944;48.722;9.316;2023-04-08T13:21:08;14.10;93.70
70475;DHT22;57944;48.722;9.316;2023-04-08T13:23:38;13.70;94.00
70475;DHT22;57944;48.722;9.316;2023-04-08T13:26:08;13.10;94.10
70475;DHT22;57944;48.722;9.316;2023-04-08T13:28:38;13.10;94.80
70475;DHT22;57944;48.722;9.316;2023-04-08T13:31:22;13.10;94.90
70475;DHT22;57944;48.722;9.316;2023-04-08T13:33:55;13.00;95.20
70475;DHT22;57944;48.722;9.316;2023-04-08T13:36:27;13.10;94.70
70475;DHT22;57944;48.722;9.316;2023-04-08T13:38:57;13.10;95.00
70475;DHT22;57944;48.722;9.316;2023-04-08T13:41:28;12.90;95.20
70475;DHT22;57944;48.722;9.316;2023-04-08T13:44:00;12.40;95.50
70475;DHT22;57944;48.722;9.316;2023-04-08T13:46:30;12.20;96.00
70475;DHT22;57944;48.722;9.316;2023-04-08T13:49:02;12.10;96.30
70475;DHT22;57944;48.722;9.316;2023-04-08T13:51:33;12.00;96.30
70475;DHT22;57944;48.722;9.316;2023-04-08T13:54:03;12.20;96.60
70475;DHT22;57944;48.722;9.316;2023-04-08T13:56:33;12.20;96.60
70475;DHT22;57944;48.722;9.316;2023-04-08T13:59:03;12.00;96.50
70475;DHT22;57944;48.722;9.316;2023-04-08T14:01:33;11.70;97.20
70475;DHT22;57944;48.722;9.316;2023-04-08T14:04:06;11.60;97.70
70475;DHT22;57944;48.722;9.316;2023-04-08T14:06:36;11.60;98.40
70475;DHT22;57944;48.722;9.316;2023-04-08T14:09:08;11.80;98.20
70475;DHT22;57944;48.722;9.316;2023-04-08T14:11:38;12.00;97.90
70475;DHT22;57944;48.722;9.316;2023-04-08T14:14:10;12.20;98.00
70475;DHT22;57944;48.722;9.316;2023-04-08T14:16:40;12.40;97.90
70475;DHT22;57944;48.722;9.316;2023-04-08T14:19:14;12.20;97.20
70475;DHT22;57944;48.722;9.316;2023-04-08T14:21:45;12.10;97.50
70475;DHT22;57944;48.722;9.316;2023-04-08T14:24:15;12.10;98.00
70475;DHT22;57944;48.722;9.316;2023-04-08T14:26:45;11.90;98.20
70475;DHT22;57944;48.722;9.316;2023-04-08T14:29:15;11.60;99.20
70475;DHT22;57944;48.722;9.316;2023-04-08T14:31:46;11.50;98.70
70475;DHT22;57944;48.722;9.316;2023-04-08T14:34:19;11.50;99.00
70475;DHT22;57944;48.722;9.316;2023-04-08T14:36:50;11.40;99.20
70475;DHT22;57944;48.722;9.316;2023-04-08T14:39:20;11.50;99.20
70475;DHT22;57944;48.722;9.316;2023-04-08T14:41:50;11.40;99.60
70475;DHT22;57944;48.722;9.316;2023-04-08T14:44:23;11.40;99.50
70475;DHT22;57944;48.722;9.316;2023-04-08T14:46:53;11.60;99.20
70475;DHT22;57944;48.722;9.316;2023-04-08T14:49:26;11.50;99.20
70475;DHT22;57944;48.722;9.316;2023-04-08T14:51:56;11.70;99.20
70475;DHT22;57944;48.722;9.316;2023-04-08T14:54:27;11.90;99.40
70475;DHT22;57944;48.722;9.316;2023-04-08T14:56:57;12.10;99.20
70475;DHT22;57944;48.722;9.316;2023-04-08T14:59:28;12.40;98.90
70475;DHT22;57944;48.722;9.316;2023-04-08T15:02:01;12.50;98.50
70475;DHT22;57944;48.722;9.316;2023-04-08T15:04:35;12.80;98.20
70475;DHT22;57944;48.722;9.316;2023-04-08T15:07:05;13.10;97.60
70475;DHT22;57944;48.722;9.316;2023-04-08T15:09:35;13.20;97.30
70475;DHT22;57944;48.722;9.316;2023-04-08T15:12:06;13.20;96.90
70475;DHT22;57944;48.722;9.316;2023-04-08T15:14:39;13.00;96.70
70475;DHT22;57944;48.722;9.316;2023-04-08T15:17:09;12.80;96.70
70475;DHT22;57944;48.722;9.316;2023-04-08T15:19:42;12.50;96.90
70475;DHT22;57944;48.722;9.316;2023-04-08T15:22:14;12.30;97.40
70475;DHT22;57944;48.722;9.316;2023-04-08T15:24:45;12.10;97.50
70475;DHT22;57944;48.722;9.316;2023-04-08T15:27:15;12.00;97.80
70475;DHT22;57944;48.722;9.316;2023-04-08T15:29:45;12.00;98.10
70475;DHT22;57944;48.722;9.316;2023-04-08T15:32:16;12.20;98.20
70475;DHT22;57944;48.722;9.316;2023-04-08T15:34:53;12.60;97.80
70475;DHT22;57944;48.722;9.316;2023-04-08T15:37:23;12.50;97.50
70475;DHT22;57944;48.722;9.316;2023-04-08T15:39:53;12.40;97.60
70475;DHT22;57944;48.722;9.316;2023-04-08T15:42:24;12.10;98.40
70475;DHT22;57944;48.722;9.316;2023-04-08T15:44:54;11.80;98.50
70475;DHT22;57944;48.722;9.316;2023-04-08T15:47:24;11.70;98.50
70475;DHT22;57944;48.722;9.316;2023-04-08T15:49:56;11.50;98.90
70475;DHT22;57944;48.722;9.316;2023-04-08T15:52:26;11.40;99.60
70475;DHT22;57944;48.722;9.316;2023-04-08T15:54:57;11.40;99.90
70475;DHT22;57944;48.722;9.316;2023-04-08T15:57:28;11.20;99.90
70475;DHT22;57944;48.722;9.316;2023-04-08T15:59:58;11.20;99.90
70475;DHT22;57944;48.722;9.316;2023-04-08T16:02:38;11.40;99.90
70475;DHT22;57944;48.722;9.316;2023-04-08T16:05:11;11.70;99.90
70475;DHT22;57944;48.722;9.316;2023-04-08T16:07:41;11.80;99.80
70475;DHT22;57944;48.722;9.316;2023-04-08T16:10:12;12.00;99.90